Roerborg — PCPO — position and weather

sailwx.info

Track history (hours):
 
Tides and Currents Weather Stations Pressure Air Temp Water Temp Dewpoint Dewpoint Depression Visibility Wind Speed Wind Dir Waves Ship Positions

Roerborg

Last reported at 2018-Jun-16 19:54 UTC. Time now 2018-Jun-20 15:11 UTC.
Position N 47°45' W 006°15'.

Length 170 m; draft 6.2 m.

Type: Cargo ship. MMSI: 244820055.

Date/timePositionNaut miles runAvg speedWind from/ knotsBaromVisibWave heightAir tempDewpointWater temp
2018-Jun-16 19:54N 47°45' W 006°15'1011.9
2018-Jun-16 19:06N 47°55' W 006°12'411.3
2018-Jun-16 18:48N 47°58' W 006°11'311.1
2018-Jun-16 18:29N 48°01' W 006°10'510.6
2018-Jun-16 17:59N 48°07' W 006°09'810.2
2018-Jun-16 17:15N 48°14' W 006°06'2 9.8
2018-Jun-16 17:00N 48°16' W 006°05'5 9.8
2018-Jun-16 16:28N 48°21' W 006°04'5 9.8
2018-Jun-16 15:59N 48°26' W 006°03'5 9.9
2018-Jun-16 15:26N 48°32' W 006°01'510.3
2018-Jun-16 14:56N 48°37' W 005°60'2011.1
2018-Jun-16 13:10N 48°54' W 005°47'211.8
2018-Jun-16 12:59N 48°56' W 005°44'612.3
2018-Jun-16 12:27N 48°59' W 005°36'10110.7
2018-Jun-16 03:01N 49°48' W 003°21'012.5
2018-Jun-16 03:00N 49°48' W 003°21'813.6
2018-Jun-16 02:25N 49°52' W 003°10'713.8
2018-Jun-16 01:56N 49°55' W 003°01'813.4
2018-Jun-16 01:21N 49°59' W 002°50'713.1
2018-Jun-16 00:52N 50°00' W 002°40'2910.2
2018-Jun-15 22:00N 50°08' W 001°56'4 7.7
2018-Jun-15 21:30N 50°10' W 001°51'5 7.4
2018-Jun-15 20:48N 50°11' W 001°43'3 7.5
2018-Jun-15 20:28N 50°12' W 001°39'4 7.9
2018-Jun-15 19:56N 50°13' W 001°33'4 8.6
2018-Jun-15 19:30N 50°14' W 001°28'5 9.4
2018-Jun-15 19:00N 50°16' W 001°21'510.6
2018-Jun-15 18:30N 50°18' W 001°13'611.9
2018-Jun-15 18:00N 50°19' W 001°04'713.3
2018-Jun-15 17:30N 50°21' W 000°54'713.7
2018-Jun-15 17:00N 50°23' W 000°44'713.8
2018-Jun-15 16:30N 50°25' W 000°34'713.8
2018-Jun-15 16:00N 50°27' W 000°23'713.5
2018-Jun-15 15:30N 50°29' W 000°13'713.2
2018-Jun-15 15:00N 50°31' W 000°03'612.9
2018-Jun-15 14:30N 50°33' E 000°06'612.6
2018-Jun-15 14:00N 50°35' E 000°16'612.3
2018-Jun-15 13:30N 50°37' E 000°25'611.8
2018-Jun-15 13:00N 50°39' E 000°34'611.3
2018-Jun-15 12:30N 50°42' E 000°42'611.1
2018-Jun-15 12:00N 50°45' E 000°49'510.9
2018-Jun-15 11:30N 50°48' E 000°56'611.1
2018-Jun-15 11:00N 50°51' E 001°03'611.3
2018-Jun-15 10:30N 50°55' E 001°10'612.3
2018-Jun-15 10:00N 50°59' E 001°17'714.1
2018-Jun-15 09:30N 51°03' E 001°26'815.8
2018-Jun-15 09:01N 51°09' E 001°35'815.5
2018-Jun-15 08:30N 51°14' E 001°45'815.1
2018-Jun-15 08:01N 51°20' E 001°51'714.3
2018-Jun-15 07:30N 51°26' E 001°57'713.4
2018-Jun-15 07:00N 51°31' E 002°04'612.8
2018-Jun-15 06:30N 51°36' E 002°11'612.4
2018-Jun-15 06:00N 51°41' E 002°17'611.7
2018-Jun-15 05:30N 51°45' E 002°24'611.3
2018-Jun-15 04:59N 51°49' E 002°30'610.9
2018-Jun-15 04:27N 51°54' E 002°36'510.5
2018-Jun-15 04:00N 51°58' E 002°41'510.3
2018-Jun-15 03:30N 52°02' E 002°46'510.1
2018-Jun-15 03:00N 52°06' E 002°51'510.1
2018-Jun-15 02:31N 52°10' E 002°56'510.1
2018-Jun-15 02:00N 52°14' E 003°01'510.5
2018-Jun-15 01:30N 52°18' E 003°06'611.2
2018-Jun-15 01:00N 52°22' E 003°12'611.8
2018-Jun-15 00:30N 52°27' E 003°18'612.4
2018-Jun-15 00:00N 52°32' E 003°24'612.7
2018-Jun-14 23:30N 52°37' E 003°30'612.9
2018-Jun-14 23:00N 52°42' E 003°37'713.1
2018-Jun-14 22:26N 52°47' E 003°46'613.0
2018-Jun-14 22:00N 52°51' E 003°52'612.9
2018-Jun-14 21:30N 52°56' E 003°59'612.6
2018-Jun-14 21:00N 53°01' E 004°06'612.2
2018-Jun-14 20:30N 53°05' E 004°13'611.6
2018-Jun-14 20:00N 53°09' E 004°20'611.1
2018-Jun-14 19:30N 53°13' E 004°27'510.8
2018-Jun-14 19:00N 53°18' E 004°29'510.5
2018-Jun-14 18:30N 53°23' E 004°33'510.2
2018-Jun-14 18:00N 53°28' E 004°36'5 9.9
2018-Jun-14 17:30N 53°30' E 004°44'5 9.6
2018-Jun-14 17:00N 53°32' E 004°51'5 9.4
2018-Jun-14 16:30N 53°34' E 004°58'5 9.5
2018-Jun-14 16:00N 53°35' E 005°06'510.1
2018-Jun-14 15:30N 53°36' E 005°14'610.5
2018-Jun-14 14:57N 53°38' E 005°24'510.8
2018-Jun-14 14:30N 53°39' E 005°31'8710.7
2018-Jun-14 06:22N 54°01' E 007°55'411.3
2018-Jun-14 05:58N 54°01' E 008°02'611.8
2018-Jun-14 05:30N 54°01' E 008°12'510.0
2018-Jun-14 05:00N 53°60' E 008°20'714.3
2018-Jun-14 04:30N 53°58' E 008°32'714.4
2018-Jun-14 04:01N 53°54' E 008°42'713.3
2018-Jun-14 03:30N 53°50' E 008°51'613.0
2018-Jun-14 03:01N 53°52' E 009°02'510.2
2018-Jun-14 02:30N 53°53' E 009°10'5 9.9
2018-Jun-14 02:01N 53°52' E 009°18'510.1
2018-Jun-14 01:30N 53°47' E 009°23'5 9.9
2018-Jun-14 01:00N 53°43' E 009°28'5 9.9
2018-Jun-14 00:30N 53°39' E 009°31'5 9.4
2018-Jun-14 00:00N 53°35' E 009°37'4 8.9
2018-Jun-13 23:30N 53°34' E 009°44'4 8.7
2018-Jun-13 23:00N 53°33' E 009°51'3 6.7
2018-Jun-13 22:30N 53°32' E 009°56'1 1.8
2018-Jun-13 22:00N 53°31' E 009°56'0 0.0
2018-Jun-13 21:27N 53°31' E 009°56'0 0.0
2018-Jun-13 21:00N 53°31' E 009°56'0 0.0
2018-Jun-13 20:30N 53°31' E 009°56'0 0.0
2018-Jun-13 20:00N 53°31' E 009°56'0 0.0
2018-Jun-13 19:30N 53°31' E 009°56'0 0.0
2018-Jun-13 19:00N 53°31' E 009°56'0 0.0
2018-Jun-13 18:30N 53°31' E 009°56'0 0.0
2018-Jun-13 18:00N 53°31' E 009°56'0 0.0
2018-Jun-13 17:30N 53°31' E 009°56'0 0.0
2018-Jun-13 17:00N 53°31' E 009°56'0 0.0
2018-Jun-13 16:30N 53°31' E 009°56'0 0.0
2018-Jun-13 16:00N 53°31' E 009°56'0 0.0
2018-Jun-13 15:30N 53°31' E 009°56'0 0.0
2018-Jun-13 15:00N 53°31' E 009°56'0 0.0
2018-Jun-13 14:30N 53°31' E 009°56'0 0.0
2018-Jun-13 14:00N 53°31' E 009°56'0 0.0
2018-Jun-13 13:30N 53°31' E 009°56'0 0.0
2018-Jun-13 13:00N 53°31' E 009°56'0 0.0
2018-Jun-13 12:30N 53°31' E 009°56'0 0.0
2018-Jun-13 12:00N 53°31' E 009°56'0 0.0
2018-Jun-13 11:30N 53°31' E 009°56'0 0.0
2018-Jun-13 11:00N 53°31' E 009°56'0 0.0
2018-Jun-13 10:30N 53°31' E 009°56'0 0.0
2018-Jun-13 10:00N 53°31' E 009°56'0 0.0
2018-Jun-13 09:30N 53°31' E 009°56'0 0.0
2018-Jun-13 09:00N 53°31' E 009°56'0 0.0
2018-Jun-13 08:30N 53°31' E 009°56'0 0.0
2018-Jun-13 08:00N 53°31' E 009°56'0 0.0
2018-Jun-13 07:30N 53°31' E 009°56'0 0.0
2018-Jun-13 07:00N 53°31' E 009°56'0 0.0
2018-Jun-13 06:30N 53°31' E 009°56'0 0.0
2018-Jun-13 06:00N 53°31' E 009°56'0 0.0
2018-Jun-13 05:30N 53°31' E 009°56'0 0.0
2018-Jun-13 05:00N 53°31' E 009°56'0 0.0
2018-Jun-13 04:30N 53°31' E 009°56'0 0.0
2018-Jun-13 04:00N 53°31' E 009°56'0 0.0
2018-Jun-13 03:30N 53°31' E 009°56'0 0.0
2018-Jun-13 03:00N 53°31' E 009°56'0 0.0
2018-Jun-13 02:30N 53°31' E 009°56'1 1.0
2018-Jun-13 02:00N 53°31' E 009°56'3 6.7
2018-Jun-13 01:30N 53°33' E 009°51'611.1
2018-Jun-13 01:00N 53°34' E 009°42'612.0
2018-Jun-13 00:30N 53°37' E 009°33'612.4
2018-Jun-13 00:00N 53°43' E 009°29'612.7
2018-Jun-12 23:30N 53°48' E 009°23'613.0
2018-Jun-12 23:01N 53°52' E 009°15'611.8
2018-Jun-12 22:30N 53°52' E 009°05'713.1
2018-Jun-12 22:01N 53°51' E 008°54'612.8
2018-Jun-12 21:30N 53°52' E 008°44'244 6.1
2018-Jun-11 05:44N 57°45' E 010°54'3 9.3
2018-Jun-11 05:26N 57°43' E 010°57'4 9.9
2018-Jun-11 04:59N 57°40' E 011°03'510.2
2018-Jun-11 04:30N 57°36' E 011°10'510.1
2018-Jun-11 04:00N 57°33' E 011°17'5 9.9
2018-Jun-11 03:30N 57°29' E 011°23'5 9.7
2018-Jun-11 03:00N 57°25' E 011°28'5 9.7
2018-Jun-11 02:30N 57°21' E 011°31'105 9.1
2018-Jun-10 15:00N 55°39' E 010°47'1110.3
2018-Jun-10 13:55N 55°29' E 010°55'410.1
2018-Jun-10 13:30N 55°25' E 010°59'5 9.7
2018-Jun-10 13:00N 55°21' E 011°02'5 9.4
2018-Jun-10 12:30N 55°16' E 011°05'5 8.3
2018-Jun-10 11:53N 55°11' E 011°03'3 9.1
2018-Jun-10 11:30N 55°08' E 010°60'5 9.7
2018-Jun-10 11:00N 55°03' E 010°60'5 9.9
2018-Jun-10 10:30N 54°58' E 010°58'510.0
2018-Jun-10 10:00N 54°55' E 010°52'510.1
2018-Jun-10 09:30N 54°50' E 010°50'510.2
2018-Jun-10 09:00N 54°45' E 010°48'5 9.2
2018-Jun-10 08:30N 54°40' E 010°48'510.4
2018-Jun-10 08:00N 54°38' E 010°56'5 9.9
2018-Jun-10 07:30N 54°36' E 011°04'510.1
2018-Jun-10 07:00N 54°35' E 011°13'510.6
2018-Jun-10 06:30N 54°33' E 011°21'510.9
2018-Jun-10 06:00N 54°31' E 011°29'510.6
2018-Jun-10 05:30N 54°29' E 011°38'510.3
2018-Jun-10 05:00N 54°26' E 011°46'510.3
2018-Jun-10 04:30N 54°26' E 011°54'510.4
2018-Jun-10 04:00N 54°26' E 012°03'5 9.5
2018-Jun-10 03:30N 54°27' E 012°11'510.6
2018-Jun-10 03:00N 54°32' E 012°14'510.3
2018-Jun-10 02:30N 54°37' E 012°19'510.5
2018-Jun-10 02:00N 54°40' E 012°26'510.5
2018-Jun-10 01:30N 54°43' E 012°34'510.7
2018-Jun-10 01:00N 54°45' E 012°42'510.5
2018-Jun-10 00:30N 54°48' E 012°50'510.6
2018-Jun-10 00:00N 54°50' E 012°58'510.8
2018-Jun-09 23:30N 54°52' E 013°07'510.8
2018-Jun-09 23:00N 54°54' E 013°16'510.7
2018-Jun-09 22:30N 54°56' E 013°24'510.8
2018-Jun-09 22:00N 54°57' E 013°33'510.6
2018-Jun-09 21:30N 54°59' E 013°42'510.3
2018-Jun-09 21:00N 55°01' E 013°50'510.3
2018-Jun-09 20:30N 55°03' E 013°59'510.4
2018-Jun-09 20:00N 55°05' E 014°07'510.6
2018-Jun-09 19:30N 55°09' E 014°13'510.3
2018-Jun-09 19:00N 55°13' E 014°18'510.4
2018-Jun-09 18:30N 55°17' E 014°24'510.6
2018-Jun-09 18:00N 55°21' E 014°30'510.7
2018-Jun-09 17:30N 55°26' E 014°36'510.5
2018-Jun-09 17:00N 55°28' E 014°44'510.4
2018-Jun-09 16:30N 55°31' E 014°52'510.5
2018-Jun-09 16:00N 55°34' E 014°60'510.6
2018-Jun-09 15:30N 55°36' E 015°08'1110.6
2018-Jun-09 14:30N 55°42' E 015°24'511.0
2018-Jun-09 14:00N 55°44' E 015°32'611.9
2018-Jun-09 13:30N 55°48' E 015°41'611.9
2018-Jun-09 13:00N 55°51' E 015°50'611.9
2018-Jun-09 12:30N 55°54' E 015°59'611.9
2018-Jun-09 12:00N 55°57' E 016°09'611.8
2018-Jun-09 11:30N 55°60' E 016°18'611.7
2018-Jun-09 11:00N 56°03' E 016°26'611.7
2018-Jun-09 10:30N 56°06' E 016°35'611.6
2018-Jun-09 10:00N 56°10' E 016°43'611.4
2018-Jun-09 09:30N 56°15' E 016°48'611.2
2018-Jun-09 08:58N 56°20' E 016°52'511.3
2018-Jun-09 08:30N 56°25' E 016°55'1211.3
2018-Jun-09 07:26N 56°37' E 017°03'511.3
2018-Jun-09 07:00N 56°41' E 017°07'611.2
2018-Jun-09 06:30N 56°46' E 017°10'611.2
2018-Jun-09 06:00N 56°51' E 017°14'611.2
2018-Jun-09 05:30N 56°57' E 017°18'611.1
2018-Jun-09 05:00N 57°02' E 017°22'611.1
2018-Jun-09 04:30N 57°07' E 017°26'611.2
2018-Jun-09 04:00N 57°12' E 017°30'611.3
2018-Jun-09 03:30N 57°17' E 017°34'611.1
2018-Jun-09 03:00N 57°22' E 017°37'611.0
2018-Jun-09 02:29N 57°28' E 017°41'611.0
2018-Jun-09 01:57N 57°33' E 017°47'14310.5
2018-Jun-08 12:20N 59°40' E 019°51'410.6
2018-Jun-08 11:57N 59°43' E 019°46'511.1
2018-Jun-08 11:30N 59°47' E 019°39'510.9
2018-Jun-08 11:00N 59°51' E 019°32'510.8
2018-Jun-08 10:30N 59°55' E 019°25'510.7
2018-Jun-08 10:00N 59°60' E 019°19'510.5
2018-Jun-08 09:30N 60°04' E 019°12'510.5
2018-Jun-08 09:00N 60°07' E 019°04'510.2
2018-Jun-08 08:30N 60°12' E 019°01'510.8
2018-Jun-08 08:00N 60°18' E 019°00'611.0
2018-Jun-08 07:30N 60°23' E 018°59'611.2
2018-Jun-08 06:59N 60°29' E 018°59'711.1
2018-Jun-08 06:19N 60°36' E 019°02'  
Track history (hours):
 
Tides and Currents Weather Stations Pressure Air Temp Water Temp Dewpoint Dewpoint Depression Visibility Wind Speed Wind Dir Waves Ship Positions

Roerborg

Last reported at 2018-Jun-16 19:54 UTC. Time now 2018-Jun-20 15:11 UTC.
Position N 47°45' W 006°15'.

Length 170 m; draft 6.2 m.

Type: Cargo ship. MMSI: 244820055.

Date/timePositionNaut miles runAvg speedWind from/ knotsBaromVisibWave heightAir tempDewpointWater temp
2018-Jun-16 19:54N 47°45' W 006°15'1011.9
2018-Jun-16 19:06N 47°55' W 006°12'411.3
2018-Jun-16 18:48N 47°58' W 006°11'311.1
2018-Jun-16 18:29N 48°01' W 006°10'510.6
2018-Jun-16 17:59N 48°07' W 006°09'810.2
2018-Jun-16 17:15N 48°14' W 006°06'2 9.8
2018-Jun-16 17:00N 48°16' W 006°05'5 9.8
2018-Jun-16 16:28N 48°21' W 006°04'5 9.8
2018-Jun-16 15:59N 48°26' W 006°03'5 9.9
2018-Jun-16 15:26N 48°32' W 006°01'510.3
2018-Jun-16 14:56N 48°37' W 005°60'2011.1
2018-Jun-16 13:10N 48°54' W 005°47'211.8
2018-Jun-16 12:59N 48°56' W 005°44'612.3
2018-Jun-16 12:27N 48°59' W 005°36'10110.7
2018-Jun-16 03:01N 49°48' W 003°21'012.5
2018-Jun-16 03:00N 49°48' W 003°21'813.6
2018-Jun-16 02:25N 49°52' W 003°10'713.8
2018-Jun-16 01:56N 49°55' W 003°01'813.4
2018-Jun-16 01:21N 49°59' W 002°50'713.1
2018-Jun-16 00:52N 50°00' W 002°40'2910.2
2018-Jun-15 22:00N 50°08' W 001°56'4 7.7
2018-Jun-15 21:30N 50°10' W 001°51'5 7.4
2018-Jun-15 20:48N 50°11' W 001°43'3 7.5
2018-Jun-15 20:28N 50°12' W 001°39'4 7.9
2018-Jun-15 19:56N 50°13' W 001°33'4 8.6
2018-Jun-15 19:30N 50°14' W 001°28'5 9.4
2018-Jun-15 19:00N 50°16' W 001°21'510.6
2018-Jun-15 18:30N 50°18' W 001°13'611.9
2018-Jun-15 18:00N 50°19' W 001°04'713.3
2018-Jun-15 17:30N 50°21' W 000°54'713.7
2018-Jun-15 17:00N 50°23' W 000°44'713.8
2018-Jun-15 16:30N 50°25' W 000°34'713.8
2018-Jun-15 16:00N 50°27' W 000°23'713.5
2018-Jun-15 15:30N 50°29' W 000°13'713.2
2018-Jun-15 15:00N 50°31' W 000°03'612.9
2018-Jun-15 14:30N 50°33' E 000°06'612.6
2018-Jun-15 14:00N 50°35' E 000°16'612.3
2018-Jun-15 13:30N 50°37' E 000°25'611.8
2018-Jun-15 13:00N 50°39' E 000°34'611.3
2018-Jun-15 12:30N 50°42' E 000°42'611.1
2018-Jun-15 12:00N 50°45' E 000°49'510.9
2018-Jun-15 11:30N 50°48' E 000°56'611.1
2018-Jun-15 11:00N 50°51' E 001°03'611.3
2018-Jun-15 10:30N 50°55' E 001°10'612.3
2018-Jun-15 10:00N 50°59' E 001°17'714.1
2018-Jun-15 09:30N 51°03' E 001°26'815.8
2018-Jun-15 09:01N 51°09' E 001°35'815.5
2018-Jun-15 08:30N 51°14' E 001°45'815.1
2018-Jun-15 08:01N 51°20' E 001°51'714.3
2018-Jun-15 07:30N 51°26' E 001°57'713.4
2018-Jun-15 07:00N 51°31' E 002°04'612.8
2018-Jun-15 06:30N 51°36' E 002°11'612.4
2018-Jun-15 06:00N 51°41' E 002°17'611.7
2018-Jun-15 05:30N 51°45' E 002°24'611.3
2018-Jun-15 04:59N 51°49' E 002°30'610.9
2018-Jun-15 04:27N 51°54' E 002°36'510.5
2018-Jun-15 04:00N 51°58' E 002°41'510.3
2018-Jun-15 03:30N 52°02' E 002°46'510.1
2018-Jun-15 03:00N 52°06' E 002°51'510.1
2018-Jun-15 02:31N 52°10' E 002°56'510.1
2018-Jun-15 02:00N 52°14' E 003°01'510.5
2018-Jun-15 01:30N 52°18' E 003°06'611.2
2018-Jun-15 01:00N 52°22' E 003°12'611.8
2018-Jun-15 00:30N 52°27' E 003°18'612.4
2018-Jun-15 00:00N 52°32' E 003°24'612.7
2018-Jun-14 23:30N 52°37' E 003°30'612.9
2018-Jun-14 23:00N 52°42' E 003°37'713.1
2018-Jun-14 22:26N 52°47' E 003°46'613.0
2018-Jun-14 22:00N 52°51' E 003°52'612.9
2018-Jun-14 21:30N 52°56' E 003°59'612.6
2018-Jun-14 21:00N 53°01' E 004°06'612.2
2018-Jun-14 20:30N 53°05' E 004°13'611.6
2018-Jun-14 20:00N 53°09' E 004°20'611.1
2018-Jun-14 19:30N 53°13' E 004°27'510.8
2018-Jun-14 19:00N 53°18' E 004°29'510.5
2018-Jun-14 18:30N 53°23' E 004°33'510.2
2018-Jun-14 18:00N 53°28' E 004°36'5 9.9
2018-Jun-14 17:30N 53°30' E 004°44'5 9.6
2018-Jun-14 17:00N 53°32' E 004°51'5 9.4
2018-Jun-14 16:30N 53°34' E 004°58'5 9.5
2018-Jun-14 16:00N 53°35' E 005°06'510.1
2018-Jun-14 15:30N 53°36' E 005°14'610.5
2018-Jun-14 14:57N 53°38' E 005°24'510.8
2018-Jun-14 14:30N 53°39' E 005°31'8710.7
2018-Jun-14 06:22N 54°01' E 007°55'411.3
2018-Jun-14 05:58N 54°01' E 008°02'611.8
2018-Jun-14 05:30N 54°01' E 008°12'510.0
2018-Jun-14 05:00N 53°60' E 008°20'714.3
2018-Jun-14 04:30N 53°58' E 008°32'714.4
2018-Jun-14 04:01N 53°54' E 008°42'713.3
2018-Jun-14 03:30N 53°50' E 008°51'613.0
2018-Jun-14 03:01N 53°52' E 009°02'510.2
2018-Jun-14 02:30N 53°53' E 009°10'5 9.9
2018-Jun-14 02:01N 53°52' E 009°18'510.1
2018-Jun-14 01:30N 53°47' E 009°23'5 9.9
2018-Jun-14 01:00N 53°43' E 009°28'5 9.9
2018-Jun-14 00:30N 53°39' E 009°31'5 9.4
2018-Jun-14 00:00N 53°35' E 009°37'4 8.9
2018-Jun-13 23:30N 53°34' E 009°44'4 8.7
2018-Jun-13 23:00N 53°33' E 009°51'3 6.7
2018-Jun-13 22:30N 53°32' E 009°56'1 1.8
2018-Jun-13 22:00N 53°31' E 009°56'0 0.0
2018-Jun-13 21:27N 53°31' E 009°56'0 0.0
2018-Jun-13 21:00N 53°31' E 009°56'0 0.0
2018-Jun-13 20:30N 53°31' E 009°56'0 0.0
2018-Jun-13 20:00N 53°31' E 009°56'0 0.0
2018-Jun-13 19:30N 53°31' E 009°56'0 0.0
2018-Jun-13 19:00N 53°31' E 009°56'0 0.0
2018-Jun-13 18:30N 53°31' E 009°56'0 0.0
2018-Jun-13 18:00N 53°31' E 009°56'0 0.0
2018-Jun-13 17:30N 53°31' E 009°56'0 0.0
2018-Jun-13 17:00N 53°31' E 009°56'0 0.0
2018-Jun-13 16:30N 53°31' E 009°56'0 0.0
2018-Jun-13 16:00N 53°31' E 009°56'0 0.0
2018-Jun-13 15:30N 53°31' E 009°56'0 0.0
2018-Jun-13 15:00N 53°31' E 009°56'0 0.0
2018-Jun-13 14:30N 53°31' E 009°56'0 0.0
2018-Jun-13 14:00N 53°31' E 009°56'0 0.0
2018-Jun-13 13:30N 53°31' E 009°56'0 0.0
2018-Jun-13 13:00N 53°31' E 009°56'0 0.0
2018-Jun-13 12:30N 53°31' E 009°56'0 0.0
2018-Jun-13 12:00N 53°31' E 009°56'0 0.0
2018-Jun-13 11:30N 53°31' E 009°56'0 0.0
2018-Jun-13 11:00N 53°31' E 009°56'0 0.0
2018-Jun-13 10:30N 53°31' E 009°56'0 0.0
2018-Jun-13 10:00N 53°31' E 009°56'0 0.0
2018-Jun-13 09:30N 53°31' E 009°56'0 0.0
2018-Jun-13 09:00N 53°31' E 009°56'0 0.0
2018-Jun-13 08:30N 53°31' E 009°56'0 0.0
2018-Jun-13 08:00N 53°31' E 009°56'0 0.0
2018-Jun-13 07:30N 53°31' E 009°56'0 0.0
2018-Jun-13 07:00N 53°31' E 009°56'0 0.0
2018-Jun-13 06:30N 53°31' E 009°56'0 0.0
2018-Jun-13 06:00N 53°31' E 009°56'0 0.0
2018-Jun-13 05:30N 53°31' E 009°56'0 0.0
2018-Jun-13 05:00N 53°31' E 009°56'0 0.0
2018-Jun-13 04:30N 53°31' E 009°56'0 0.0
2018-Jun-13 04:00N 53°31' E 009°56'0 0.0
2018-Jun-13 03:30N 53°31' E 009°56'0 0.0
2018-Jun-13 03:00N 53°31' E 009°56'0 0.0
2018-Jun-13 02:30N 53°31' E 009°56'1 1.0
2018-Jun-13 02:00N 53°31' E 009°56'3 6.7
2018-Jun-13 01:30N 53°33' E 009°51'611.1
2018-Jun-13 01:00N 53°34' E 009°42'612.0
2018-Jun-13 00:30N 53°37' E 009°33'612.4
2018-Jun-13 00:00N 53°43' E 009°29'612.7
2018-Jun-12 23:30N 53°48' E 009°23'613.0
2018-Jun-12 23:01N 53°52' E 009°15'611.8
2018-Jun-12 22:30N 53°52' E 009°05'713.1
2018-Jun-12 22:01N 53°51' E 008°54'612.8
2018-Jun-12 21:30N 53°52' E 008°44'244 6.1
2018-Jun-11 05:44N 57°45' E 010°54'3 9.3
2018-Jun-11 05:26N 57°43' E 010°57'4 9.9
2018-Jun-11 04:59N 57°40' E 011°03'510.2
2018-Jun-11 04:30N 57°36' E 011°10'510.1
2018-Jun-11 04:00N 57°33' E 011°17'5 9.9
2018-Jun-11 03:30N 57°29' E 011°23'5 9.7
2018-Jun-11 03:00N 57°25' E 011°28'5 9.7
2018-Jun-11 02:30N 57°21' E 011°31'105 9.1
2018-Jun-10 15:00N 55°39' E 010°47'1110.3
2018-Jun-10 13:55N 55°29' E 010°55'410.1
2018-Jun-10 13:30N 55°25' E 010°59'5 9.7
2018-Jun-10 13:00N 55°21' E 011°02'5 9.4
2018-Jun-10 12:30N 55°16' E 011°05'5 8.3
2018-Jun-10 11:53N 55°11' E 011°03'3 9.1
2018-Jun-10 11:30N 55°08' E 010°60'5 9.7
2018-Jun-10 11:00N 55°03' E 010°60'5 9.9
2018-Jun-10 10:30N 54°58' E 010°58'510.0
2018-Jun-10 10:00N 54°55' E 010°52'510.1
2018-Jun-10 09:30N 54°50' E 010°50'510.2
2018-Jun-10 09:00N 54°45' E 010°48'5 9.2
2018-Jun-10 08:30N 54°40' E 010°48'510.4
2018-Jun-10 08:00N 54°38' E 010°56'5 9.9
2018-Jun-10 07:30N 54°36' E 011°04'510.1
2018-Jun-10 07:00N 54°35' E 011°13'510.6
2018-Jun-10 06:30N 54°33' E 011°21'510.9
2018-Jun-10 06:00N 54°31' E 011°29'510.6
2018-Jun-10 05:30N 54°29' E 011°38'510.3
2018-Jun-10 05:00N 54°26' E 011°46'510.3
2018-Jun-10 04:30N 54°26' E 011°54'510.4
2018-Jun-10 04:00N 54°26' E 012°03'5 9.5
2018-Jun-10 03:30N 54°27' E 012°11'510.6
2018-Jun-10 03:00N 54°32' E 012°14'510.3
2018-Jun-10 02:30N 54°37' E 012°19'510.5
2018-Jun-10 02:00N 54°40' E 012°26'510.5
2018-Jun-10 01:30N 54°43' E 012°34'510.7
2018-Jun-10 01:00N 54°45' E 012°42'510.5
2018-Jun-10 00:30N 54°48' E 012°50'510.6
2018-Jun-10 00:00N 54°50' E 012°58'510.8
2018-Jun-09 23:30N 54°52' E 013°07'510.8
2018-Jun-09 23:00N 54°54' E 013°16'510.7
2018-Jun-09 22:30N 54°56' E 013°24'510.8
2018-Jun-09 22:00N 54°57' E 013°33'510.6
2018-Jun-09 21:30N 54°59' E 013°42'510.3
2018-Jun-09 21:00N 55°01' E 013°50'510.3
2018-Jun-09 20:30N 55°03' E 013°59'510.4
2018-Jun-09 20:00N 55°05' E 014°07'510.6
2018-Jun-09 19:30N 55°09' E 014°13'510.3
2018-Jun-09 19:00N 55°13' E 014°18'510.4
2018-Jun-09 18:30N 55°17' E 014°24'510.6
2018-Jun-09 18:00N 55°21' E 014°30'510.7
2018-Jun-09 17:30N 55°26' E 014°36'510.5
2018-Jun-09 17:00N 55°28' E 014°44'510.4
2018-Jun-09 16:30N 55°31' E 014°52'510.5
2018-Jun-09 16:00N 55°34' E 014°60'510.6
2018-Jun-09 15:30N 55°36' E 015°08'1110.6
2018-Jun-09 14:30N 55°42' E 015°24'511.0
2018-Jun-09 14:00N 55°44' E 015°32'611.9
2018-Jun-09 13:30N 55°48' E 015°41'611.9
2018-Jun-09 13:00N 55°51' E 015°50'611.9
2018-Jun-09 12:30N 55°54' E 015°59'611.9
2018-Jun-09 12:00N 55°57' E 016°09'611.8
2018-Jun-09 11:30N 55°60' E 016°18'611.7
2018-Jun-09 11:00N 56°03' E 016°26'611.7
2018-Jun-09 10:30N 56°06' E 016°35'611.6
2018-Jun-09 10:00N 56°10' E 016°43'611.4
2018-Jun-09 09:30N 56°15' E 016°48'611.2
2018-Jun-09 08:58N 56°20' E 016°52'511.3
2018-Jun-09 08:30N 56°25' E 016°55'1211.3
2018-Jun-09 07:26N 56°37' E 017°03'511.3
2018-Jun-09 07:00N 56°41' E 017°07'611.2
2018-Jun-09 06:30N 56°46' E 017°10'611.2
2018-Jun-09 06:00N 56°51' E 017°14'611.2
2018-Jun-09 05:30N 56°57' E 017°18'611.1
2018-Jun-09 05:00N 57°02' E 017°22'611.1
2018-Jun-09 04:30N 57°07' E 017°26'611.2
2018-Jun-09 04:00N 57°12' E 017°30'611.3
2018-Jun-09 03:30N 57°17' E 017°34'611.1
2018-Jun-09 03:00N 57°22' E 017°37'611.0
2018-Jun-09 02:29N 57°28' E 017°41'611.0
2018-Jun-09 01:57N 57°33' E 017°47'14310.5
2018-Jun-08 12:20N 59°40' E 019°51'410.6
2018-Jun-08 11:57N 59°43' E 019°46'511.1
2018-Jun-08 11:30N 59°47' E 019°39'510.9
2018-Jun-08 11:00N 59°51' E 019°32'510.8
2018-Jun-08 10:30N 59°55' E 019°25'510.7
2018-Jun-08 10:00N 59°60' E 019°19'510.5
2018-Jun-08 09:30N 60°04' E 019°12'510.5
2018-Jun-08 09:00N 60°07' E 019°04'510.2
2018-Jun-08 08:30N 60°12' E 019°01'510.8
2018-Jun-08 08:00N 60°18' E 019°00'611.0
2018-Jun-08 07:30N 60°23' E 018°59'611.2
2018-Jun-08 06:59N 60°29' E 018°59'711.1
2018-Jun-08 06:19N 60°36' E 019°02'  

Dump ship's entire track history